Time;durP1;ratioP1;P1;durP2;ratioP2;P2;SDS_P1;SDS_P2;PMS_P1;PMS_P2;Temp;Humidity;BMP_temperature;BMP_pressure;BME280_temperature;BME280_humidity;BME280_pressure;Samples;Min_cycle;Max_cycle;Signal;HPM_P1;HPM_P2
2023/08/27 00:02:03;;;;;;;12.25;7.57;;;;;;;27.04;52.28;98499.97;4346162;32;33637;-89
2023/08/27 00:04:31;;;;;;;13.88;8.02;;;;;;;26.99;52.22;98499.44;4359362;32;35046;-89
2023/08/27 00:06:58;;;;;;;15.85;8.10;;;;;;;26.92;52.52;98506.97;4353621;32;33452;-89
2023/08/27 00:09:26;;;;;;;11.70;7.85;;;;;;;27.01;52.20;98510.84;4332377;33;34016;-88
2023/08/27 00:11:54;;;;;;;13.00;8.23;;;;;;;26.99;52.32;98522.53;4333085;33;33672;-89
2023/08/27 00:14:21;;;;;;;12.48;8.23;;;;;;;26.86;52.88;98512.69;4332727;33;33996;-89
2023/08/27 00:16:48;;;;;;;15.82;9.63;;;;;;;27.01;52.48;98518.84;4350396;32;35017;-89
2023/08/27 00:19:16;;;;;;;12.63;8.50;;;;;;;26.97;52.57;98516.44;4347700;32;33622;-88
2023/08/27 00:21:44;;;;;;;15.20;9.63;;;;;;;26.91;52.85;98526.53;4347607;32;33125;-89
2023/08/27 00:24:11;;;;;;;11.05;8.50;;;;;;;26.84;53.10;98522.56;4347713;32;33767;-89
2023/08/27 00:26:39;;;;;;;13.35;8.82;;;;;;;26.78;53.17;98522.94;4344357;33;33943;-89
2023/08/27 00:29:07;;;;;;;13.32;9.30;;;;;;;26.79;52.92;98522.00;4332740;33;33490;-89
2023/08/27 00:31:34;;;;;;;13.70;9.05;;;;;;;26.74;53.20;98523.25;4346473;33;34784;-89
2023/08/27 00:34:02;;;;;;;15.60;9.25;;;;;;;26.74;53.29;98528.56;4346576;33;33741;-89
2023/08/27 00:36:29;;;;;;;15.32;9.35;;;;;;;26.63;53.47;98515.94;4359076;32;34563;-89
2023/08/27 00:38:57;;;;;;;13.38;9.15;;;;;;;26.64;53.52;98525.66;4361332;32;34331;-89
2023/08/27 00:41:25;;;;;;;12.60;9.52;;;;;;;26.62;53.62;98508.91;4360951;32;33936;-89
2023/08/27 00:43:52;;;;;;;14.75;9.10;;;;;;;26.53;53.88;98514.84;4361075;32;34820;-89
2023/08/27 00:46:20;;;;;;;16.30;9.35;;;;;;;26.47;54.24;98508.09;4360723;32;34269;-89
2023/08/27 00:48:48;;;;;;;14.63;10.07;;;;;;;26.59;53.76;98509.09;4357356;32;33395;-89
2023/08/27 00:51:16;;;;;;;14.50;9.55;;;;;;;26.41;54.38;98500.47;4357499;32;33756;-89
2023/08/27 00:53:43;;;;;;;13.93;9.73;;;;;;;26.36;54.91;98507.87;4346633;33;34048;-88
2023/08/27 00:56:11;;;;;;;17.37;10.60;;;;;;;26.23;55.32;98498.97;4346442;33;34874;-89
2023/08/27 00:58:39;;;;;;;16.87;10.98;;;;;;;26.23;55.49;98491.00;4334614;32;33364;-89
2023/08/27 01:01:07;;;;;;;15.43;10.13;;;;;;;26.26;55.48;98488.16;4361020;32;34171;-89
2023/08/27 01:03:35;;;;;;;15.55;9.88;;;;;;;26.20;55.74;98486.72;4361011;32;34597;-89
2023/08/27 01:06:02;;;;;;;13.30;10.60;;;;;;;26.29;55.46;98485.28;4354113;32;34077;-88
2023/08/27 01:08:44;;;;;;;16.37;11.77;;;;;;;26.24;55.69;98482.06;4346171;32;33375;-89
2023/08/27 01:11:26;;;;;;;17.45;10.82;;;;;;;26.30;55.84;98508.25;4332453;33;33512;-88
2023/08/27 01:14:02;;;;;;;13.73;9.93;;;;;;;26.22;55.71;98521.16;4320439;33;33824;-89
2023/08/27 01:16:30;;;;;;;13.50;10.60;;;;;;;26.00;56.00;98500.37;4354979;32;34056;-88
2023/08/27 01:18:59;;;;;;;18.92;11.15;;;;;;;26.19;55.73;98519.53;4360938;32;33764;-89
2023/08/27 01:21:29;;;;;;;19.08;11.00;;;;;;;26.24;55.50;98519.25;4347748;32;34720;-89
2023/08/27 01:23:57;;;;;;;15.18;11.48;;;;;;;26.18;55.81;98517.84;4347771;32;34575;-89
2023/08/27 01:26:52;;;;;;;16.98;11.05;;;;;;;26.22;55.75;98513.19;4351972;32;35019;-88
2023/08/27 01:29:26;;;;;;;17.52;11.02;;;;;;;26.44;55.26;98524.19;4332757;33;33593;-89
2023/08/27 01:32:28;;;;;;;15.55;10.82;;;;;;;26.24;56.00;98516.59;4332637;33;34723;-89
2023/08/27 01:34:56;;;;;;;20.98;11.82;;;;;;;26.26;56.22;98506.75;4345978;33;33804;-88
2023/08/27 01:37:24;;;;;;;14.02;10.60;;;;;;;26.27;56.19;98500.47;4346470;32;34482;-88
2023/08/27 01:40:05;;;;;;;14.57;10.30;;;;;;;26.25;56.16;98510.31;4360540;32;33181;-88
2023/08/27 01:42:37;;;;;;;15.55;10.95;;;;;;;26.16;56.55;98512.59;4347535;32;34668;-88
2023/08/27 01:45:08;;;;;;;19.27;11.73;;;;;;;26.08;56.96;98512.22;4347234;32;33620;-89
2023/08/27 01:47:35;;;;;;;16.45;12.05;;;;;;;26.18;56.57;98502.75;4319629;33;92827;-88
2023/08/27 01:50:05;;;;;;;16.62;11.48;;;;;;;26.08;56.87;98498.94;4345788;33;33540;-89
2023/08/27 01:52:35;;;;;;;18.25;12.68;;;;;;;26.00;57.17;98503.03;4345771;33;34131;-89
2023/08/27 01:55:04;;;;;;;15.93;11.82;;;;;;;25.84;57.55;98493.34;4345786;32;34187;-88
2023/08/27 01:57:32;;;;;;;17.15;12.27;;;;;;;25.91;57.55;98497.34;4346963;32;33696;-89
2023/08/27 02:00:00;;;;;;;18.27;12.15;;;;;;;25.93;57.36;98506.03;4360969;32;33588;-89
2023/08/27 02:02:30;;;;;;;14.95;11.60;;;;;;;25.86;57.64;98507.34;4349394;32;33967;-89
2023/08/27 02:04:58;;;;;;;16.35;12.95;;;;;;;25.80;57.61;98510.41;4345705;33;34988;-89
2023/08/27 02:07:26;;;;;;;20.33;13.38;;;;;;;25.39;59.00;98515.47;4345893;33;33850;-89
2023/08/27 02:09:53;;;;;;;17.77;13.40;;;;;;;25.52;58.73;98516.44;4345682;33;34117;-88
2023/08/27 02:12:21;;;;;;;19.58;13.65;;;;;;;25.57;58.88;98506.44;4354443;32;33977;-89
2023/08/27 02:14:48;;;;;;;16.87;12.93;;;;;;;25.29;60.25;98508.97;4347240;32;33950;-89
2023/08/27 02:17:16;;;;;;;17.75;12.52;;;;;;;24.94;61.52;98511.81;4346706;32;34264;-89
2023/08/27 02:19:44;;;;;;;16.08;12.00;;;;;;;24.84;61.99;98502.66;4360759;32;33340;-88
2023/08/27 02:22:11;;;;;;;14.95;11.00;;;;;;;25.05;61.45;98505.91;4352052;32;33978;-89
2023/08/27 02:24:39;;;;;;;14.82;11.88;;;;;;;25.27;60.87;98511.72;4345278;33;34217;-89
2023/08/27 02:27:06;;;;;;;15.25;11.12;;;;;;;25.10;61.44;98511.81;4345653;32;33864;-88
2023/08/27 02:29:38;;;;;;;13.25;10.93;;;;;;;24.87;62.08;98510.44;4356220;32;34025;-88
2023/08/27 02:32:06;;;;;;;15.65;11.20;;;;;;;24.75;62.52;98514.63;4359365;32;34082;-88
2023/08/27 02:34:33;;;;;;;12.80;9.85;;;;;;;24.75;62.45;98504.03;4360315;32;34099;-88
2023/08/27 02:37:00;;;;;;;12.30;8.77;;;;;;;24.50;63.06;98504.50;4346622;32;32428;-89
2023/08/27 02:39:28;;;;;;;13.68;9.35;;;;;;;24.79;62.33;98502.06;4336648;33;33247;-89
2023/08/27 02:41:56;;;;;;;13.32;9.48;;;;;;;24.88;61.90;98502.38;4344326;33;34044;-89
2023/08/27 02:44:23;;;;;;;12.68;9.02;;;;;;;25.00;61.61;98516.75;4332325;33;34526;-89
2023/08/27 02:46:52;;;;;;;15.55;10.45;;;;;;;24.92;61.96;98511.88;4345155;33;34189;-89
2023/08/27 02:49:20;;;;;;;16.83;9.82;;;;;;;24.39;63.95;98514.81;4353805;32;33349;-90
2023/08/27 02:51:48;;;;;;;15.70;9.35;;;;;;;24.10;65.08;98522.50;4360205;32;33055;-90
2023/08/27 02:54:15;;;;;;;14.43;9.80;;;;;;;23.98;65.70;98526.66;4346150;32;34912;-89
2023/08/27 02:56:43;;;;;;;13.43;9.90;;;;;;;24.19;65.10;98523.81;4331893;33;33869;-88
2023/08/27 02:59:10;;;;;;;14.68;9.30;;;;;;;24.14;65.09;98526.72;4344058;33;32960;-87
2023/08/27 03:01:38;;;;;;;13.00;8.15;;;;;;;24.33;64.61;98523.09;4345445;33;34637;-88
2023/08/27 03:04:06;;;;;;;15.63;8.63;;;;;;;24.47;63.92;98509.97;4343846;32;33473;-90
2023/08/27 03:06:33;;;;;;;11.82;7.43;;;;;;;24.30;64.46;98505.56;4346916;32;34768;-88
2023/08/27 03:09:01;;;;;;;12.37;7.18;;;;;;;24.12;64.91;98515.34;4360190;32;33770;-88
2023/08/27 03:11:28;;;;;;;10.43;6.75;;;;;;;24.52;63.36;98513.25;4360151;32;33918;-88
2023/08/27 03:13:56;;;;;;;11.43;7.20;;;;;;;24.06;64.78;98502.44;4349243;32;34870;-88
2023/08/27 03:16:24;;;;;;;9.32;7.03;;;;;;;24.12;64.51;98520.63;4332135;33;34210;-88
2023/08/27 03:18:51;;;;;;;10.65;6.78;;;;;;;24.04;64.90;98517.53;4345359;33;33052;-88
2023/08/27 03:21:19;;;;;;;11.52;7.22;;;;;;;23.98;65.07;98523.13;4345062;33;33813;-88
2023/08/27 03:23:47;;;;;;;12.18;6.70;;;;;;;23.95;65.21;98525.97;4354000;32;34932;-89
2023/08/27 03:26:14;;;;;;;9.95;6.93;;;;;;;23.73;66.17;98524.41;4346278;32;33742;-89
2023/08/27 03:28:42;;;;;;;8.88;5.78;;;;;;;23.72;65.79;98528.00;4346700;32;34378;-89
2023/08/27 03:31:09;;;;;;;10.02;6.00;;;;;;;23.47;66.55;98548.66;4359931;32;33685;-88
2023/08/27 03:33:37;;;;;;;8.73;6.00;;;;;;;23.61;65.93;98535.59;4351994;32;34262;-89
2023/08/27 03:36:04;;;;;;;11.00;6.28;;;;;;;23.65;66.00;98534.50;4331367;33;33138;-87
2023/08/27 03:38:32;;;;;;;9.35;5.25;;;;;;;23.49;66.24;98531.78;4331933;33;33249;-88
2023/08/27 03:41:00;;;;;;;7.37;4.95;;;;;;;23.49;65.77;98542.38;4331634;33;33677;-89
2023/08/27 03:43:27;;;;;;;9.48;5.30;;;;;;;23.97;64.20;98532.88;4345197;32;33946;-88
2023/08/27 03:45:55;;;;;;;8.13;4.97;;;;;;;23.52;65.21;98547.50;4347655;32;33221;-88
2023/08/27 03:48:23;;;;;;;8.55;4.90;;;;;;;23.34;65.92;98548.41;4348440;32;33197;-89
2023/08/27 03:50:51;;;;;;;7.65;4.70;;;;;;;23.46;65.40;98546.94;4347947;32;33875;-88
2023/08/27 03:53:18;;;;;;;9.85;4.65;;;;;;;23.42;65.32;98543.59;4349746;32;34165;-92
2023/08/27 03:55:46;;;;;;;7.70;3.85;;;;;;;23.41;65.61;98548.94;4357812;32;33713;-88
2023/08/27 03:58:13;;;;;;;9.88;4.55;;;;;;;23.01;66.56;98550.88;4333139;33;33458;-89
2023/08/27 04:00:41;;;;;;;6.03;4.05;;;;;;;23.04;66.30;98546.31;4346436;33;34864;-90
2023/08/27 04:03:09;;;;;;;7.28;4.32;;;;;;;23.17;65.50;98546.56;4343577;32;33416;-90
2023/08/27 04:05:37;;;;;;;6.32;3.12;;;;;;;22.87;66.73;98559.44;4347057;32;34135;-89
2023/08/27 04:08:06;;;;;;;6.28;3.53;;;;;;;23.14;65.79;98557.28;4359956;32;34701;-89
2023/08/27 04:10:33;;;;;;;5.90;3.85;;;;;;;23.08;65.70;98546.16;4346365;33;33633;-88
2023/08/27 04:13:01;;;;;;;6.82;3.15;;;;;;;23.34;64.60;98558.13;4333199;33;34980;-89
2023/08/27 04:15:29;;;;;;;7.53;3.80;;;;;;;23.02;65.72;98563.16;4346573;33;33826;-89
2023/08/27 04:17:57;;;;;;;6.87;3.37;;;;;;;22.88;66.20;98565.56;4346568;32;33694;-88
2023/08/27 04:20:25;;;;;;;7.53;3.20;;;;;;;23.09;65.51;98564.59;4346404;33;34315;-88
2023/08/27 04:22:52;;;;;;;5.53;3.20;;;;;;;23.11;64.93;98561.88;4333161;33;33610;-89
2023/08/27 04:25:20;;;;;;;6.15;2.80;;;;;;;23.01;65.17;98561.47;4334868;32;34496;-88
2023/08/27 04:27:48;;;;;;;5.82;3.20;;;;;;;23.01;65.26;98561.47;4361154;32;33019;-88
2023/08/27 04:30:16;;;;;;;7.75;3.00;;;;;;;23.25;64.61;98549.69;4347722;32;32901;-88
2023/08/27 04:32:44;;;;;;;4.85;2.62;;;;;;;23.42;63.56;98542.75;4361510;32;35587;-89
2023/08/27 04:35:11;;;;;;;7.53;2.33;;;;;;;23.41;63.68;98543.66;4359783;32;33781;-89
2023/08/27 04:37:39;;;;;;;4.97;2.60;;;;;;;23.39;63.54;98542.88;4346616;33;34071;-89
2023/08/27 04:40:07;;;;;;;5.00;2.55;;;;;;;24.03;61.94;98542.31;4346343;33;33890;-89
2023/08/27 04:42:34;;;;;;;6.15;2.50;;;;;;;23.98;61.73;98549.62;4320456;33;33789;-88
2023/08/27 04:45:03;;;;;;;3.87;2.05;;;;;;;24.53;59.70;98544.09;4332882;32;34492;-88
2023/08/27 04:47:31;;;;;;;5.15;2.22;;;;;;;24.45;60.16;98538.34;4346373;33;33417;-89
2023/08/27 04:49:59;;;;;;;3.75;2.20;;;;;;;24.26;60.44;98534.00;4332892;33;34388;-88
2023/08/27 04:52:27;;;;;;;5.82;2.25;;;;;;;24.79;58.77;98536.53;4346253;33;34140;-89
2023/08/27 04:54:59;;;;;;;5.82;2.70;;;;;;;24.99;58.25;98529.16;4333067;33;33777;-88
2023/08/27 04:57:27;;;;;;;4.97;1.85;;;;;;;25.16;58.10;98530.91;4360002;32;32902;-87
2023/08/27 04:59:54;;;;;;;3.97;1.90;;;;;;;25.71;56.16;98527.69;4347674;32;34123;-88
2023/08/27 05:02:22;;;;;;;4.43;1.98;;;;;;;25.32;56.80;98532.69;4360951;32;34911;-89
2023/08/27 05:04:50;;;;;;;4.40;2.30;;;;;;;25.13;57.28;98539.03;4347356;32;34741;-90
2023/08/27 05:07:18;;;;;;;4.47;1.90;;;;;;;24.84;58.45;98542.41;4322088;33;33315;-88
2023/08/27 05:09:46;;;;;;;4.55;1.98;;;;;;;24.64;59.23;98548.81;4346285;33;34684;-88
2023/08/27 05:12:14;;;;;;;4.47;2.30;;;;;;;24.64;59.16;98554.13;4346141;33;33668;-88
2023/08/27 05:14:41;;;;;;;3.95;2.10;;;;;;;24.71;59.12;98559.00;4346299;33;34073;-90
2023/08/27 05:17:10;;;;;;;5.78;2.42;;;;;;;24.43;60.04;98556.12;4335356;33;33397;-88
2023/08/27 05:19:38;;;;;;;3.95;2.20;;;;;;;24.86;58.93;98559.09;4354146;32;33740;-88
2023/08/27 05:22:05;;;;;;;5.20;2.47;;;;;;;25.03;58.48;98566.13;4360945;32;34164;-88
2023/08/27 05:24:34;;;;;;;8.27;2.55;;;;;;;25.19;57.94;98570.53;4361200;32;34304;-89
2023/08/27 05:27:03;;;;;;;5.82;2.42;;;;;;;25.47;57.13;98560.97;4347601;32;34627;-89
2023/08/27 05:29:31;;;;;;;5.22;2.33;;;;;;;25.36;57.72;98558.94;4346087;32;33526;-88
2023/08/27 05:31:59;;;;;;;5.32;2.50;;;;;;;25.78;56.54;98543.25;4350851;32;33625;-87
2023/08/27 05:34:26;;;;;;;4.47;2.12;;;;;;;26.12;55.46;98537.66;4332682;33;33859;-88
2023/08/27 05:36:54;;;;;;;4.55;2.50;;;;;;;26.50;54.70;98530.97;4346313;33;33945;-88
2023/08/27 05:39:22;;;;;;;4.75;2.50;;;;;;;26.64;54.19;98530.97;4346615;32;33838;-88
2023/08/27 05:41:50;;;;;;;5.55;2.85;;;;;;;26.78;53.46;98532.72;4320438;33;33140;-89
2023/08/27 05:44:17;;;;;;;6.03;3.05;;;;;;;27.02;53.42;98535.66;4332409;33;33514;-88
2023/08/27 05:46:45;;;;;;;6.43;2.40;;;;;;;26.53;54.51;98536.09;4344117;33;34404;-87
2023/08/27 05:49:13;;;;;;;7.20;2.78;;;;;;;26.88;53.44;98553.31;4350623;32;34547;-88
2023/08/27 05:51:41;;;;;;;5.75;2.35;;;;;;;26.59;54.89;98554.31;4346846;32;34123;-88
2023/08/27 05:54:09;;;;;;;5.25;2.70;;;;;;;26.83;54.53;98549.28;4336085;33;33437;-88
2023/08/27 05:56:37;;;;;;;5.93;2.22;;;;;;;26.52;54.95;98543.22;4346112;33;33925;-88
2023/08/27 05:59:05;;;;;;;4.90;2.47;;;;;;;26.21;56.28;98552.19;4349505;32;34561;-90
2023/08/27 06:01:33;;;;;;;5.85;3.00;;;;;;;26.31;55.80;98556.00;4334586;32;34091;-87
2023/08/27 06:04:00;;;;;;;6.80;2.80;;;;;;;26.62;55.34;98547.00;4360547;32;34340;-89
2023/08/27 06:06:28;;;;;;;8.15;3.65;;;;;;;26.58;55.30;98556.12;4359871;32;32874;-89
2023/08/27 06:08:55;;;;;;;6.40;3.42;;;;;;;26.39;55.34;98547.53;4357859;32;33530;-88
2023/08/27 06:11:23;;;;;;;6.20;3.28;;;;;;;26.51;55.16;98546.81;4345917;33;33966;-89
2023/08/27 06:13:52;;;;;;;5.97;3.33;;;;;;;26.86;54.90;98549.94;4345970;33;33842;-88
2023/08/27 06:16:19;;;;;;;5.55;3.53;;;;;;;26.64;55.73;98545.09;4332073;33;32872;-88
2023/08/27 06:18:47;;;;;;;6.40;3.67;;;;;;;26.38;56.36;98528.09;4335771;32;32493;-89
2023/08/27 06:21:17;;;;;;;7.12;3.60;;;;;;;26.62;55.71;98533.69;4360537;32;33838;-88
2023/08/27 06:23:44;;;;;;;6.65;4.10;;;;;;;26.79;55.79;98531.81;4360378;32;34368;-88
2023/08/27 06:26:13;;;;;;;8.27;4.60;;;;;;;26.50;56.09;98534.47;4360882;32;33459;-87
2023/08/27 06:28:40;;;;;;;6.50;4.03;;;;;;;26.47;56.21;98531.16;4357507;32;33873;-88
2023/08/27 06:31:09;;;;;;;7.97;4.12;;;;;;;26.24;57.82;98524.56;4345335;33;34261;-88
2023/08/27 06:33:38;;;;;;;8.50;4.87;;;;;;;26.81;55.66;98525.41;4345878;33;34115;-88
2023/08/27 06:36:06;;;;;;;8.95;4.45;;;;;;;26.78;56.08;98525.59;4333292;32;33762;-88
2023/08/27 06:38:33;;;;;;;6.28;4.00;;;;;;;27.05;55.32;98517.69;4331978;33;34551;-89
2023/08/27 06:41:01;;;;;;;8.10;4.40;;;;;;;27.10;55.99;98523.53;4345505;33;33853;-89
2023/08/27 06:43:29;;;;;;;7.70;4.35;;;;;;;27.25;55.24;98531.53;4346108;32;34052;-94
2023/08/27 06:45:56;;;;;;;7.62;4.47;;;;;;;27.61;53.87;98531.72;4331868;33;33038;-93
2023/08/27 06:48:25;;;;;;;13.82;5.03;;;;;;;27.47;55.28;98530.97;4344301;33;34012;-88
2023/08/27 06:50:52;;;;;;;7.45;5.12;;;;;;;27.61;55.24;98529.06;4345523;33;34950;-92
2023/08/27 06:53:20;;;;;;;8.43;5.37;;;;;;;27.52;54.42;98527.03;4346943;33;34442;-89
2023/08/27 06:55:48;;;;;;;9.85;5.37;;;;;;;27.75;53.43;98519.31;4332230;33;33276;-88
2023/08/27 06:58:16;;;;;;;8.05;5.60;;;;;;;27.89;53.35;98516.59;4345478;33;33983;-92
2023/08/27 07:00:44;;;;;;;8.77;5.53;;;;;;;27.98;54.07;98515.94;4332078;33;33959;-91
2023/08/27 07:03:13;;;;;;;11.60;6.10;;;;;;;28.08;53.59;98519.69;4345253;33;34851;-91
2023/08/27 07:05:41;;;;;;;9.45;5.90;;;;;;;28.49;52.81;98512.41;4331909;33;33922;-91
2023/08/27 07:08:09;;;;;;;9.13;5.65;;;;;;;28.11;53.21;98519.47;4332128;33;33565;-90
2023/08/27 07:10:37;;;;;;;10.70;5.97;;;;;;;28.01;53.58;98518.41;4332086;33;33797;-89
2023/08/27 07:13:05;;;;;;;12.05;6.15;;;;;;;28.33;54.13;98523.28;4344912;33;34504;-91
2023/08/27 07:15:32;;;;;;;10.57;6.80;;;;;;;28.72;52.89;98527.66;4344451;33;34699;-90
2023/08/27 07:18:01;;;;;;;10.05;5.85;;;;;;;28.45;53.32;98521.59;4344847;33;34351;-90
2023/08/27 07:20:29;;;;;;;11.12;6.47;;;;;;;28.83;52.28;98526.88;4331882;33;34856;-90
2023/08/27 07:22:57;;;;;;;10.10;5.68;;;;;;;29.07;52.04;98535.78;4345597;33;33780;-91
2023/08/27 07:25:25;;;;;;;9.95;5.50;;;;;;;29.45;50.65;98523.25;4331931;33;34424;-92
2023/08/27 07:27:52;;;;;;;8.63;6.05;;;;;;;29.72;50.56;98531.88;4344593;33;33976;-92
2023/08/27 07:30:20;;;;;;;8.88;6.15;;;;;;;29.73;50.02;98517.53;4332046;33;33678;-92
2023/08/27 07:32:50;;;;;;;11.48;7.00;;;;;;;29.91;49.64;98520.63;4344722;33;33954;-92
2023/08/27 07:35:18;;;;;;;13.45;6.20;;;;;;;29.87;49.88;98519.16;4331684;33;33292;-92
2023/08/27 07:37:46;;;;;;;9.32;6.40;;;;;;;30.14;49.54;98520.66;4356013;32;34536;-92
2023/08/27 07:40:14;;;;;;;11.10;6.32;;;;;;;30.06;49.45;98508.75;4331559;33;34330;-91
2023/08/27 07:42:42;;;;;;;12.40;5.97;;;;;;;30.24;49.82;98498.47;4344717;33;34031;-92
2023/08/27 07:45:11;;;;;;;15.27;6.85;;;;;;;30.21;49.88;98503.22;4344875;33;33729;-91
2023/08/27 07:47:39;;;;;;;10.88;5.90;;;;;;;29.83;51.24;98504.34;4319509;33;32353;-91
2023/08/27 07:50:07;;;;;;;9.88;6.97;;;;;;;30.06;51.18;98497.22;4345059;33;34072;-93
2023/08/27 07:52:35;;;;;;;11.32;7.40;;;;;;;30.52;49.74;98493.59;4328810;33;32673;-91
2023/08/27 07:55:21;;;;;;;10.50;6.70;;;;;;;30.71;48.78;98499.19;4332284;33;34345;-91
2023/08/27 07:57:49;;;;;;;13.10;7.03;;;;;;;31.01;48.04;98490.50;4319620;33;33734;-91
2023/08/27 08:00:18;;;;;;;12.35;7.30;;;;;;;30.68;48.13;98487.88;4344165;33;33959;-90
2023/08/27 08:02:47;;;;;;;14.40;8.02;;;;;;;30.58;46.84;98487.78;4331170;33;33862;-88
2023/08/27 08:05:14;;;;;;;11.23;7.65;;;;;;;30.24;47.33;98487.78;4345131;33;33288;-89
2023/08/27 08:07:42;;;;;;;12.00;7.62;;;;;;;29.97;47.83;98490.78;4331494;33;34854;-89
2023/08/27 08:10:10;;;;;;;12.40;7.47;;;;;;;30.01;48.57;98486.88;4344666;33;34571;-89
2023/08/27 08:12:38;;;;;;;11.12;7.53;;;;;;;30.31;48.93;98493.50;4342880;33;33922;-90
2023/08/27 08:15:06;;;;;;;13.52;7.25;;;;;;;30.36;47.51;98491.31;4331033;33;31805;-92
2023/08/27 08:17:33;;;;;;;9.25;7.03;;;;;;;30.58;48.13;98493.13;4319185;33;33289;-91
2023/08/27 08:20:13;;;;;;;11.20;7.80;;;;;;;30.53;47.75;98488.16;4332259;33;33647;-91
2023/08/27 08:22:41;;;;;;;10.00;7.07;;;;;;;30.55;47.09;98493.38;4304041;33;33442;-89
2023/08/27 08:25:08;;;;;;;10.57;7.37;;;;;;;30.57;48.07;98486.06;4329473;33;32429;-92
2023/08/27 08:27:36;;;;;;;12.88;8.02;;;;;;;30.71;47.42;98480.44;4316373;33;34733;-89
2023/08/27 08:30:04;;;;;;;11.35;7.85;;;;;;;30.76;47.41;98490.81;4329251;33;34351;-89
2023/08/27 08:32:32;;;;;;;13.20;8.95;;;;;;;31.00;46.91;98488.81;4339184;33;33749;-88
2023/08/27 08:34:59;;;;;;;13.25;8.30;;;;;;;30.16;46.62;98481.31;4346683;33;33374;-89
2023/08/27 08:37:28;;;;;;;11.23;8.02;;;;;;;30.03;46.93;98476.06;4333188;33;33765;-92
2023/08/27 08:39:55;;;;;;;11.40;7.45;;;;;;;30.39;46.52;98472.34;4346366;33;33805;-90
2023/08/27 08:42:55;;;;;;;9.65;7.70;;;;;;;30.72;46.78;98474.16;4346278;33;34165;-87
2023/08/27 08:45:36;;;;;;;12.95;7.93;;;;;;;30.18;46.88;98474.88;4357389;32;33660;-87
2023/08/27 08:48:05;;;;;;;10.52;7.47;;;;;;;30.37;47.15;98476.97;4332869;33;34527;-90
2023/08/27 08:50:35;;;;;;;12.40;8.07;;;;;;;30.58;46.25;98484.25;4332720;33;33291;-88
2023/08/27 08:53:13;;;;;;;13.10;7.62;;;;;;;30.57;46.71;98493.22;4332678;33;35024;-88
2023/08/27 08:55:45;;;;;;;9.68;7.75;;;;;;;30.93;46.44;98486.78;4346061;33;34615;-87
2023/08/27 08:58:13;;;;;;;12.18;8.23;;;;;;;30.67;46.94;98486.19;4332843;33;34206;-88
2023/08/27 09:00:41;;;;;;;11.12;8.25;;;;;;;30.88;46.50;98481.81;4332855;33;34129;-88
2023/08/27 09:03:11;;;;;;;9.48;7.70;;;;;;;31.32;44.66;98482.66;4332724;33;33804;-92
2023/08/27 09:05:39;;;;;;;12.25;7.97;;;;;;;30.79;44.29;98474.50;4306216;33;32552;-89
2023/08/27 09:08:09;;;;;;;12.57;8.80;;;;;;;31.29;45.38;98479.34;4306339;33;33898;-88
2023/08/27 09:10:37;;;;;;;11.43;8.40;;;;;;;31.07;45.61;98478.47;4318076;33;34035;-88
2023/08/27 09:13:05;;;;;;;11.77;8.50;;;;;;;31.18;45.41;98474.91;4341317;33;35037;-89
2023/08/27 09:15:32;;;;;;;12.07;8.15;;;;;;;31.22;44.36;98476.34;4346236;33;33547;-88
2023/08/27 09:18:01;;;;;;;16.08;8.25;;;;;;;31.51;45.96;98460.53;4346267;33;33639;-88
2023/08/27 09:20:30;;;;;;;11.98;8.82;;;;;;;31.54;44.20;98460.28;4332586;33;33943;-90
2023/08/27 09:22:58;;;;;;;13.70;7.95;;;;;;;31.40;44.59;98464.09;4346424;33;34666;-87
2023/08/27 09:25:27;;;;;;;14.30;8.48;;;;;;;31.78;44.56;98459.16;4346075;33;34431;-87
2023/08/27 09:27:54;;;;;;;12.90;8.25;;;;;;;31.90;44.32;98461.69;4345991;33;33612;-89
2023/08/27 09:30:22;;;;;;;10.82;8.10;;;;;;;32.03;44.40;98456.09;4345713;33;34118;-89
2023/08/27 09:32:50;;;;;;;14.02;8.32;;;;;;;32.10;42.93;98456.41;4332782;33;34037;-88
2023/08/27 09:35:18;;;;;;;16.05;8.80;;;;;;;32.27;42.35;98446.87;4346167;33;33836;-89
2023/08/27 09:37:47;;;;;;;14.52;9.13;;;;;;;32.34;42.80;98451.56;4345922;33;34291;-90
2023/08/27 09:40:17;;;;;;;13.93;8.43;;;;;;;32.54;41.32;98443.59;4323770;33;34195;-87
2023/08/27 09:42:46;;;;;;;11.15;8.60;;;;;;;32.10;42.87;98445.69;4317452;33;34347;-89
2023/08/27 09:45:16;;;;;;;14.40;9.20;;;;;;;32.09;41.66;98439.47;4329801;33;32201;-90
2023/08/27 09:47:44;;;;;;;17.25;10.27;;;;;;;32.45;40.03;98440.75;4342008;33;34666;-89
2023/08/27 09:50:16;;;;;;;12.77;8.98;;;;;;;32.44;40.73;98446.28;4340029;33;35099;-95
2023/08/27 09:52:49;;;;;;;11.88;9.02;;;;;;;32.42;40.98;98446.41;4320734;33;32669;-93
2023/08/27 09:55:19;;;;;;;14.38;9.20;;;;;;;32.59;40.91;98446.75;4332414;33;33528;-89
2023/08/27 09:57:50;;;;;;;12.98;9.38;;;;;;;32.29;41.42;98445.78;4332392;33;33992;-93
2023/08/27 10:00:18;;;;;;;12.57;9.43;;;;;;;32.62;42.22;98441.13;4345297;33;34672;-89
2023/08/27 10:02:49;;;;;;;12.98;9.73;;;;;;;32.55;42.01;98442.66;4332341;33;33977;-88
2023/08/27 10:05:17;;;;;;;13.52;9.45;;;;;;;32.75;41.45;98447.06;4332604;33;33634;-91
2023/08/27 10:07:56;;;;;;;15.82;9.18;;;;;;;32.82;41.70;98437.47;4320046;33;32352;-91
2023/08/27 10:10:24;;;;;;;14.38;9.23;;;;;;;32.60;41.03;98445.75;4345703;33;33716;-91
2023/08/27 10:12:52;;;;;;;15.98;9.45;;;;;;;32.85;40.04;98445.25;4345758;33;33963;-90
2023/08/27 10:15:22;;;;;;;13.02;9.82;;;;;;;33.06;40.90;98447.00;4332039;33;34157;-91
2023/08/27 10:17:51;;;;;;;14.65;9.55;;;;;;;33.28;40.23;98444.03;4348945;32;33574;-89
2023/08/27 10:20:20;;;;;;;12.88;9.60;;;;;;;33.35;40.50;98449.69;4345998;33;35334;-89
2023/08/27 10:22:48;;;;;;;13.10;10.05;;;;;;;33.63;40.72;98439.94;4345091;33;35402;-89
2023/08/27 10:25:17;;;;;;;13.73;9.43;;;;;;;33.73;39.06;98439.91;4340379;33;33392;-88
2023/08/27 10:27:47;;;;;;;12.05;9.55;;;;;;;33.96;38.67;98418.91;4319721;33;34805;-90
2023/08/27 10:30:16;;;;;;;12.05;9.60;;;;;;;33.43;39.83;98420.28;4341004;33;34965;-87
2023/08/27 10:32:44;;;;;;;13.93;9.45;;;;;;;33.06;39.74;98428.19;4345536;33;33840;-92
2023/08/27 10:35:12;;;;;;;15.35;9.68;;;;;;;33.53;38.69;98425.69;4319983;33;33560;-88
2023/08/27 10:37:43;;;;;;;13.57;9.45;;;;;;;33.55;39.35;98423.69;4345574;33;34211;-89
2023/08/27 10:40:12;;;;;;;13.62;9.77;;;;;;;33.75;40.34;98419.94;4345091;32;34169;-89
2023/08/27 10:42:39;;;;;;;13.85;9.48;;;;;;;33.53;38.55;98410.41;4330155;33;34477;-89
2023/08/27 10:45:16;;;;;;;11.77;9.15;;;;;;;33.92;38.80;98409.44;4343641;33;33912;-91
2023/08/27 10:48:15;;;;;;;15.40;10.32;;;;;;;33.67;38.21;98406.38;4343075;33;33575;-87
2023/08/27 10:51:08;;;;;;;12.30;9.50;;;;;;;33.69;39.62;98409.78;4343294;33;33854;-91
2023/08/27 10:53:56;;;;;;;12.98;9.05;;;;;;;33.88;37.17;98398.97;4329385;33;34100;-86
2023/08/27 10:56:37;;;;;;;12.60;9.45;;;;;;;33.89;38.22;98400.66;4330412;33;34631;-91
2023/08/27 10:59:11;;;;;;;12.55;9.10;;;;;;;34.11;37.73;98401.31;4345024;33;34086;-90
2023/08/27 11:02:07;;;;;;;12.43;9.00;;;;;;;34.14;37.91;98404.56;4345521;33;33857;-88
2023/08/27 11:04:38;;;;;;;13.00;8.98;;;;;;;34.11;37.24;98404.84;4333261;33;34852;-89
2023/08/27 11:07:17;;;;;;;15.07;8.98;;;;;;;34.22;37.47;98409.22;4332836;32;34138;-89
2023/08/27 11:09:54;;;;;;;11.93;8.80;;;;;;;34.35;38.17;98398.94;4359281;32;33790;-87
2023/08/27 11:12:26;;;;;;;12.80;9.68;;;;;;;34.29;36.47;98396.00;4360438;32;34617;-87
2023/08/27 11:14:55;;;;;;;13.20;8.38;;;;;;;34.50;37.48;98390.38;4346566;32;33764;-87
2023/08/27 11:17:27;;;;;;;11.05;9.07;;;;;;;34.68;37.09;98391.25;4334960;33;34810;-92
2023/08/27 11:19:57;;;;;;;10.93;8.95;;;;;;;34.62;36.36;98391.84;4344968;33;34083;-87
2023/08/27 11:22:25;;;;;;;11.82;8.88;;;;;;;34.58;35.85;98385.09;4345529;33;33929;-86
2023/08/27 11:24:54;;;;;;;14.68;9.00;;;;;;;34.31;35.35;98381.41;4345163;33;33847;-90
2023/08/27 11:27:25;;;;;;;13.77;9.05;;;;;;;34.54;37.05;98397.16;4345198;33;33813;-89
2023/08/27 11:29:53;;;;;;;13.18;8.73;;;;;;;34.76;35.01;98398.56;4331741;33;34720;-89
2023/08/27 11:32:21;;;;;;;11.77;8.82;;;;;;;34.81;34.74;98396.25;4345123;33;33690;-88
2023/08/27 11:34:53;;;;;;;12.27;8.80;;;;;;;34.67;35.24;98392.28;4344742;33;34318;-85
2023/08/27 11:37:29;;;;;;;12.60;9.30;;;;;;;34.68;33.88;98391.25;4345159;33;34410;-88